Transatlantic — WDC2769 — position and weather

sailwx.info

Track history (hours):
 
Tides and Currents Weather Stations Pressure Air Temp Water Temp Dewpoint Dewpoint Depression Visibility Wind Speed Wind Dir Waves Ship Positions

Transatlantic

Owner: TRANSATLANTIC LINES SHIP HOLDINGS II INC, Greenwich, CT. More information available from US FCC via Universal Licensing System and Coast Guard Vessel Documentation Center.

Last reported at 2016-Nov-12 09:33 UTC. Time now 2016-Dec-06 12:12 UTC.
Position N 36°20' E 014°32'.
Warning: this ship's position is 24 days out of date.

Length 101 m; draft 5.6 m.

Type: Cargo ship. MMSI: 366997520.

Date/timePositionNaut miles runAvg speedWind from/ knotsBaromVisibWave heightAir tempDewpointWater temp
2016-Nov-12 09:33N 36°20' E 014°32'  
2016-Nov-09 18:24N 36°06' W 005°11'4 4.7
2016-Nov-09 17:33N 36°04' W 005°15'8 3.7
2016-Nov-09 15:33N 35°57' W 005°17'3 1.6
2016-Nov-09 13:33N 35°54' W 005°18'0 0.0
2016-Nov-09 08:33N 35°54' W 005°18'1 1.5
2016-Nov-09 07:33N 35°55' W 005°18'1 0.6
2016-Nov-09 05:33N 35°55' W 005°19'0 0.0
2016-Nov-09 04:33N 35°54' W 005°19'0 0.0
2016-Nov-09 02:33N 35°55' W 005°19'6 1.9
2016-Nov-08 23:34N 35°60' W 005°21'5 5.2
2016-Nov-08 22:33N 36°05' W 005°22'1 0.8
2016-Nov-08 21:33N 36°05' W 005°22'2 1.5
2016-Nov-08 20:29N 36°04' W 005°20'5 5.2
2016-Nov-08 19:32N 36°02' W 005°14'29612.4
2016-Nov-07 19:33N 39°07' W 010°06'71414.0
2016-Nov-05 16:33N 49°55' W 003°04'6115.2
2016-Nov-05 12:33N 50°13' W 001°34'4012.4
2016-Nov-05 09:19N 50°24' W 000°34'1013.7
2016-Nov-05 08:33N 50°27' W 000°18'1514.7
2016-Nov-05 07:31N 50°31' E 000°05'4414.7
2016-Nov-05 04:31N 50°53' E 001°06'2512.8
2016-Nov-05 02:34N 51°09' E 001°37'1212.3
2016-Nov-05 01:34N 51°18' E 001°50'3315.4
2016-Nov-04 23:26N 51°44' E 002°22'18412.4
2016-Nov-04 08:34N 54°18' E 005°10'  
Track history (hours):
 
Tides and Currents Weather Stations Pressure Air Temp Water Temp Dewpoint Dewpoint Depression Visibility Wind Speed Wind Dir Waves Ship Positions

Transatlantic

Owner: TRANSATLANTIC LINES SHIP HOLDINGS II INC, Greenwich, CT. More information available from US FCC via Universal Licensing System and Coast Guard Vessel Documentation Center.

Last reported at 2016-Nov-12 09:33 UTC. Time now 2016-Dec-06 12:12 UTC.
Position N 36°20' E 014°32'.
Warning: this ship's position is 24 days out of date.

Length 101 m; draft 5.6 m.

Type: Cargo ship. MMSI: 366997520.

Date/timePositionNaut miles runAvg speedWind from/ knotsBaromVisibWave heightAir tempDewpointWater temp
2016-Nov-12 09:33N 36°20' E 014°32'  
2016-Nov-09 18:24N 36°06' W 005°11'4 4.7
2016-Nov-09 17:33N 36°04' W 005°15'8 3.7
2016-Nov-09 15:33N 35°57' W 005°17'3 1.6
2016-Nov-09 13:33N 35°54' W 005°18'0 0.0
2016-Nov-09 08:33N 35°54' W 005°18'1 1.5
2016-Nov-09 07:33N 35°55' W 005°18'1 0.6
2016-Nov-09 05:33N 35°55' W 005°19'0 0.0
2016-Nov-09 04:33N 35°54' W 005°19'0 0.0
2016-Nov-09 02:33N 35°55' W 005°19'6 1.9
2016-Nov-08 23:34N 35°60' W 005°21'5 5.2
2016-Nov-08 22:33N 36°05' W 005°22'1 0.8
2016-Nov-08 21:33N 36°05' W 005°22'2 1.5
2016-Nov-08 20:29N 36°04' W 005°20'5 5.2
2016-Nov-08 19:32N 36°02' W 005°14'29612.4
2016-Nov-07 19:33N 39°07' W 010°06'71414.0
2016-Nov-05 16:33N 49°55' W 003°04'6115.2
2016-Nov-05 12:33N 50°13' W 001°34'4012.4
2016-Nov-05 09:19N 50°24' W 000°34'1013.7
2016-Nov-05 08:33N 50°27' W 000°18'1514.7
2016-Nov-05 07:31N 50°31' E 000°05'4414.7
2016-Nov-05 04:31N 50°53' E 001°06'2512.8
2016-Nov-05 02:34N 51°09' E 001°37'1212.3
2016-Nov-05 01:34N 51°18' E 001°50'3315.4
2016-Nov-04 23:26N 51°44' E 002°22'18412.4
2016-Nov-04 08:34N 54°18' E 005°10'  

Dump ship's entire track history